createdAt,value
2023-04-27T00:00:15.810Z,95103.00
2023-04-27T00:01:15.826Z,95109.00
2023-04-27T00:02:15.919Z,95107.00
2023-04-27T00:03:16.081Z,95105.00
2023-04-27T00:04:16.018Z,95097.00
2023-04-27T00:05:16.176Z,95101.00
2023-04-27T00:06:16.032Z,95101.00
2023-04-27T00:07:15.973Z,95095.00
2023-04-27T00:08:16.027Z,95095.00
2023-04-27T00:09:16.337Z,95099.00
2023-04-27T00:10:16.064Z,95099.00
2023-04-27T00:11:16.074Z,95097.00
2023-04-27T00:12:16.118Z,95095.00
2023-04-27T00:13:16.156Z,95095.00
2023-04-27T00:14:16.191Z,95091.00
2023-04-27T00:15:16.198Z,95091.00
2023-04-27T00:16:16.225Z,95091.00
2023-04-27T00:17:16.202Z,95095.00
2023-04-27T00:18:16.284Z,95095.00
2023-04-27T00:19:16.323Z,95095.00
2023-04-27T00:20:16.310Z,95097.00
2023-04-27T00:21:16.339Z,95097.00
2023-04-27T00:22:16.367Z,95095.00
2023-04-27T00:23:16.372Z,95095.00
2023-04-27T00:24:16.410Z,95095.00
2023-04-27T00:25:16.410Z,95093.00
2023-04-27T00:26:16.451Z,95089.00
2023-04-27T00:27:16.485Z,95091.00
2023-04-27T00:28:16.505Z,95093.00
2023-04-27T00:29:16.537Z,95091.00
2023-04-27T00:30:16.510Z,95091.00
2023-04-27T00:31:16.564Z,95091.00
2023-04-27T00:32:16.638Z,95091.00
2023-04-27T00:33:16.616Z,95089.00
2023-04-27T00:34:16.654Z,95091.00
2023-04-27T00:35:16.630Z,95091.00
2023-04-27T00:36:16.670Z,95093.00
2023-04-27T00:37:16.707Z,95093.00
2023-04-27T00:38:16.735Z,95086.00
2023-04-27T00:39:16.723Z,95086.00
2023-04-27T00:40:16.774Z,95084.00
2023-04-27T00:41:16.784Z,95086.00
2023-04-27T00:42:16.825Z,95086.00
2023-04-27T00:43:16.832Z,95084.00
2023-04-27T00:44:16.842Z,95084.00
2023-04-27T00:45:16.898Z,95084.00
2023-04-27T00:46:16.977Z,95084.00
2023-04-27T00:47:16.977Z,95086.00
2023-04-27T00:48:16.957Z,95086.00
2023-04-27T00:49:16.993Z,95087.00
2023-04-27T00:50:17.004Z,95086.00
2023-04-27T00:51:17.039Z,95086.00
2023-04-27T00:52:17.060Z,95086.00
2023-04-27T00:53:17.046Z,95086.00
2023-04-27T00:54:17.088Z,95086.00
2023-04-27T00:55:17.091Z,95084.00
2023-04-27T00:56:17.152Z,95082.00
2023-04-27T00:57:17.191Z,95080.00
2023-04-27T00:58:17.169Z,95080.00
2023-04-27T00:59:17.216Z,95080.00
2023-04-27T01:00:17.219Z,95080.00
2023-04-27T01:01:17.245Z,95080.00
2023-04-27T01:02:17.406Z,95082.00
2023-04-27T01:03:17.411Z,95078.00
2023-04-27T01:04:17.398Z,95078.00
2023-04-27T01:05:17.344Z,95078.00
2023-04-27T01:06:17.361Z,95082.00
2023-04-27T01:07:17.391Z,95082.00
2023-04-27T01:08:17.425Z,95084.00
2023-04-27T01:09:17.481Z,95086.00
2023-04-27T01:10:17.485Z,95084.00
2023-04-27T01:11:17.513Z,95086.00
2023-04-27T01:12:17.562Z,95084.00
2023-04-27T01:13:17.553Z,95086.00
2023-04-27T01:14:18.856Z,95086.00
2023-04-27T01:15:17.594Z,95082.00
2023-04-27T01:16:17.690Z,95082.00
2023-04-27T01:17:17.716Z,95084.00
2023-04-27T01:18:17.687Z,95084.00
2023-04-27T01:19:17.710Z,95080.00
2023-04-27T01:20:17.727Z,95082.00
2023-04-27T01:21:17.759Z,95080.00
2023-04-27T01:22:17.795Z,95082.00
2023-04-27T01:23:17.842Z,95080.00
2023-04-27T01:24:17.833Z,95080.00
2023-04-27T01:25:17.864Z,95080.00
2023-04-27T01:26:17.909Z,95078.00
2023-04-27T01:27:17.916Z,95078.00
2023-04-27T01:28:17.928Z,95076.00
2023-04-27T01:29:17.949Z,95076.00
2023-04-27T01:30:17.959Z,95078.00
2023-04-27T01:31:18.072Z,95078.00
2023-04-27T01:32:18.033Z,95078.00
2023-04-27T01:33:18.063Z,95080.00
2023-04-27T01:34:18.063Z,95080.00
2023-04-27T01:35:18.123Z,95080.00
2023-04-27T01:36:18.123Z,95078.00
2023-04-27T01:37:18.171Z,95078.00
2023-04-27T01:38:18.188Z,95078.00
2023-04-27T01:39:18.233Z,95074.00
2023-04-27T01:40:18.245Z,95074.00
2023-04-27T01:41:18.255Z,95074.00
2023-04-27T01:42:18.322Z,95074.00
2023-04-27T01:43:18.322Z,95076.00
2023-04-27T01:44:18.358Z,95078.00
2023-04-27T01:45:18.383Z,95076.00
2023-04-27T01:46:18.475Z,95080.00
2023-04-27T01:47:18.420Z,95078.00
2023-04-27T01:48:18.436Z,95074.00
2023-04-27T01:49:18.490Z,95074.00
2023-04-27T01:50:18.520Z,95074.00
2023-04-27T01:51:18.579Z,95074.00
2023-04-27T01:52:18.563Z,95076.00
2023-04-27T01:53:18.565Z,95074.00
2023-04-27T01:54:18.611Z,95076.00
2023-04-27T01:55:18.668Z,95074.00
2023-04-27T01:56:18.665Z,95074.00
2023-04-27T01:57:18.736Z,95070.00
2023-04-27T01:58:18.756Z,95072.00
2023-04-27T01:59:18.765Z,95070.00
2023-04-27T02:00:18.819Z,95072.00
2023-04-27T02:01:18.840Z,95074.00
2023-04-27T02:02:18.875Z,95074.00
2023-04-27T02:03:18.988Z,95074.00
2023-04-27T02:04:19.042Z,95080.00
2023-04-27T02:05:18.914Z,95078.00
2023-04-27T02:06:18.947Z,95078.00
2023-04-27T02:07:18.973Z,95078.00
2023-04-27T02:08:19.023Z,95078.00
2023-04-27T02:09:19.032Z,95072.00
2023-04-27T02:10:19.031Z,95072.00
2023-04-27T02:11:19.052Z,95072.00
2023-04-27T02:12:19.099Z,95072.00
2023-04-27T02:13:19.147Z,95072.00
2023-04-27T02:14:19.124Z,95074.00
2023-04-27T02:15:19.178Z,95078.00
2023-04-27T02:16:19.244Z,95078.00
2023-04-27T02:17:19.228Z,95082.00
2023-04-27T02:18:19.190Z,95082.00
2023-04-27T02:19:19.237Z,95080.00
2023-04-27T02:20:19.262Z,95082.00
2023-04-27T02:21:19.278Z,95078.00
2023-04-27T02:22:19.323Z,95076.00
2023-04-27T02:23:19.329Z,95080.00
2023-04-27T02:24:19.335Z,95076.00
2023-04-27T02:25:19.338Z,95078.00
2023-04-27T02:26:19.344Z,95082.00
2023-04-27T02:27:19.402Z,95084.00
2023-04-27T02:28:19.437Z,95086.00
2023-04-27T02:29:19.409Z,95091.00
2023-04-27T02:30:19.533Z,95091.00
2023-04-27T02:31:19.429Z,95091.00
2023-04-27T02:32:19.434Z,95091.00
2023-04-27T02:33:19.435Z,95091.00
2023-04-27T02:34:19.450Z,95089.00
2023-04-27T02:35:19.448Z,95087.00
2023-04-27T02:36:19.454Z,95087.00
2023-04-27T02:37:19.456Z,95089.00
2023-04-27T02:38:19.481Z,95089.00
2023-04-27T02:39:19.836Z,95093.00
2023-04-27T02:40:19.448Z,95093.00
2023-04-27T02:41:19.447Z,95095.00
2023-04-27T02:42:19.448Z,95091.00
2023-04-27T02:43:19.459Z,95089.00
2023-04-27T02:44:19.464Z,95089.00
2023-04-27T02:45:19.468Z,95087.00
2023-04-27T02:46:19.498Z,95087.00
2023-04-27T02:47:19.480Z,95089.00
2023-04-27T02:48:19.441Z,95087.00
2023-04-27T02:49:19.438Z,95091.00
2023-04-27T02:50:19.453Z,95087.00
2023-04-27T02:51:19.468Z,95091.00
2023-04-27T02:52:19.426Z,95089.00
2023-04-27T02:53:19.425Z,95087.00
2023-04-27T02:54:19.434Z,95089.00
2023-04-27T02:55:19.435Z,95087.00
2023-04-27T02:56:19.414Z,95089.00
2023-04-27T02:57:20.027Z,95091.00
2023-04-27T02:58:19.419Z,95091.00
2023-04-27T02:59:19.443Z,95095.00
2023-04-27T03:00:19.426Z,95095.00
2023-04-27T03:01:19.493Z,95093.00
2023-04-27T03:02:19.493Z,95093.00
2023-04-27T03:03:19.583Z,95089.00
2023-04-27T03:04:19.592Z,95091.00
2023-04-27T03:05:19.426Z,95089.00
2023-04-27T03:06:19.410Z,95087.00
2023-04-27T03:07:19.404Z,95086.00
2023-04-27T03:08:19.462Z,95084.00
2023-04-27T03:09:19.400Z,95086.00
2023-04-27T03:10:19.386Z,95086.00
2023-04-27T03:11:19.452Z,95087.00
2023-04-27T03:12:19.401Z,95087.00
2023-04-27T03:13:19.438Z,95087.00
2023-04-27T03:14:19.417Z,95087.00
2023-04-27T03:15:19.430Z,95086.00
2023-04-27T03:16:19.475Z,95086.00
2023-04-27T03:17:19.410Z,95087.00
2023-04-27T03:18:19.417Z,95087.00
2023-04-27T03:19:19.426Z,95091.00
2023-04-27T03:20:19.466Z,95095.00
2023-04-27T03:21:19.493Z,95097.00
2023-04-27T03:22:19.513Z,95097.00
2023-04-27T03:23:19.532Z,95097.00
2023-04-27T03:24:19.582Z,95095.00
2023-04-27T03:25:19.567Z,95095.00
2023-04-27T03:26:19.598Z,95097.00
2023-04-27T03:27:19.808Z,95099.00
2023-04-27T03:28:19.718Z,95101.00
2023-04-27T03:29:19.696Z,95099.00
2023-04-27T03:30:19.771Z,95097.00
2023-04-27T03:31:19.821Z,95097.00
2023-04-27T03:32:19.782Z,95095.00
2023-04-27T03:33:19.825Z,95097.00
2023-04-27T03:34:19.856Z,95097.00
2023-04-27T03:35:19.866Z,95099.00
2023-04-27T03:36:19.930Z,95099.00
2023-04-27T03:37:19.935Z,95101.00
2023-04-27T03:38:19.944Z,95101.00
2023-04-27T03:39:20.014Z,95107.00
2023-04-27T03:40:19.992Z,95107.00
2023-04-27T03:41:20.051Z,95105.00
2023-04-27T03:42:20.142Z,95105.00
2023-04-27T03:43:20.108Z,95107.00
2023-04-27T03:44:20.148Z,95109.00
2023-04-27T03:45:20.187Z,95111.00
2023-04-27T03:46:20.293Z,95113.00
2023-04-27T03:47:20.344Z,95111.00
2023-04-27T03:48:20.310Z,95113.00
2023-04-27T03:49:20.372Z,95113.00
2023-04-27T03:50:20.420Z,95115.00
2023-04-27T03:51:20.426Z,95115.00
2023-04-27T03:52:20.487Z,95115.00
2023-04-27T03:53:20.502Z,95113.00
2023-04-27T03:54:20.554Z,95115.00
2023-04-27T03:55:20.555Z,95113.00
2023-04-27T03:56:20.634Z,95115.00
2023-04-27T03:57:20.614Z,95115.00
2023-04-27T03:58:20.615Z,95117.00
2023-04-27T03:59:20.693Z,95119.00
2023-04-27T04:00:20.672Z,95121.00
2023-04-27T04:01:20.670Z,95123.00
2023-04-27T04:02:20.807Z,95125.00
2023-04-27T04:03:20.960Z,95125.00
2023-04-27T04:04:20.921Z,95129.00
2023-04-27T04:05:20.898Z,95131.00
2023-04-27T04:06:20.899Z,95133.00
2023-04-27T04:07:20.883Z,95136.00
2023-04-27T04:08:20.897Z,95136.00
2023-04-27T04:09:22.701Z,95138.00
2023-04-27T04:10:28.540Z,95148.00
2023-04-27T04:11:20.942Z,95150.00
2023-04-27T04:12:20.930Z,95152.00
2023-04-27T04:13:20.949Z,95152.00
2023-04-27T04:14:20.936Z,95156.00
2023-04-27T04:15:20.911Z,95158.00
2023-04-27T04:16:20.942Z,95160.00
2023-04-27T04:17:20.876Z,95158.00
2023-04-27T04:18:20.878Z,95160.00
2023-04-27T04:19:22.146Z,95166.00
2023-04-27T04:20:20.854Z,95170.00
2023-04-27T04:21:20.908Z,95164.00
2023-04-27T04:22:20.856Z,95172.00
2023-04-27T04:23:20.809Z,95172.00
2023-04-27T04:24:20.864Z,95176.00
2023-04-27T04:25:20.813Z,95176.00
2023-04-27T04:26:20.836Z,95180.00
2023-04-27T04:27:20.826Z,95182.00
2023-04-27T04:28:20.834Z,95182.00
2023-04-27T04:29:20.781Z,95184.00
2023-04-27T04:30:20.809Z,95182.00
2023-04-27T04:31:20.944Z,95186.00
2023-04-27T04:32:20.950Z,95186.00
2023-04-27T04:33:21.025Z,95187.00
2023-04-27T04:34:21.062Z,95187.00
2023-04-27T04:35:21.134Z,95191.00
2023-04-27T04:36:21.191Z,95191.00
2023-04-27T04:37:21.253Z,95191.00
2023-04-27T04:38:21.337Z,95189.00
2023-04-27T04:39:21.429Z,95195.00
2023-04-27T04:40:21.493Z,95195.00
2023-04-27T04:41:21.492Z,95197.00
2023-04-27T04:42:21.582Z,95199.00
2023-04-27T04:43:21.667Z,95199.00
2023-04-27T04:44:21.684Z,95199.00
2023-04-27T04:45:21.745Z,95199.00
2023-04-27T04:46:21.813Z,95207.00
2023-04-27T04:47:21.890Z,95207.00
2023-04-27T04:48:21.921Z,95207.00
2023-04-27T04:49:21.948Z,95211.00
2023-04-27T04:50:21.985Z,95209.00
2023-04-27T04:51:22.013Z,95213.00
2023-04-27T04:52:21.999Z,95209.00
2023-04-27T04:53:22.025Z,95209.00
2023-04-27T04:54:22.065Z,95213.00
2023-04-27T04:55:22.047Z,95215.00
2023-04-27T04:56:22.057Z,95217.00
2023-04-27T04:57:22.085Z,95217.00
2023-04-27T04:58:29.693Z,95219.00
2023-04-27T04:59:22.014Z,95219.00
2023-04-27T05:00:22.025Z,95221.00
2023-04-27T05:02:41.185Z,95219.00
2023-04-27T05:03:41.046Z,95217.00
2023-04-27T05:04:41.034Z,95215.00
2023-04-27T05:05:40.887Z,95211.00
2023-04-27T05:06:40.898Z,95215.00
2023-04-27T05:07:40.900Z,95221.00
2023-04-27T05:08:41.820Z,95221.00
2023-04-27T05:09:40.885Z,95223.00
2023-04-27T05:10:40.905Z,95227.00
2023-04-27T05:11:40.864Z,95229.00
2023-04-27T05:12:40.844Z,95227.00
2023-04-27T05:13:40.840Z,95229.00
2023-04-27T05:14:40.847Z,95227.00
2023-04-27T05:15:40.862Z,95233.00
2023-04-27T05:16:40.986Z,95235.00
2023-04-27T05:17:40.895Z,95237.00
2023-04-27T05:18:40.799Z,95241.00
2023-04-27T05:19:40.771Z,95242.00
2023-04-27T05:20:40.783Z,95246.00
2023-04-27T05:21:40.792Z,95241.00
2023-04-27T05:22:40.803Z,95239.00
2023-04-27T05:23:40.749Z,95241.00
2023-04-27T05:24:40.765Z,95242.00
2023-04-27T05:25:40.802Z,95244.00
2023-04-27T05:26:40.745Z,95242.00
2023-04-27T05:27:40.735Z,95248.00
2023-04-27T05:28:40.738Z,95244.00
2023-04-27T05:29:40.739Z,95242.00
2023-04-27T05:30:40.743Z,95242.00
2023-04-27T05:31:40.756Z,95242.00
2023-04-27T05:32:41.106Z,95244.00
2023-04-27T05:33:40.778Z,95242.00
2023-04-27T05:34:40.706Z,95244.00
2023-04-27T05:35:40.679Z,95242.00
2023-04-27T05:36:40.683Z,95242.00
2023-04-27T05:37:40.704Z,95246.00
2023-04-27T05:38:40.749Z,95242.00
2023-04-27T05:39:40.645Z,95246.00
2023-04-27T05:40:40.673Z,95246.00
2023-04-27T05:41:40.666Z,95244.00
2023-04-27T05:42:41.157Z,95246.00
2023-04-27T05:43:40.615Z,95250.00
2023-04-27T05:44:40.654Z,95252.00
2023-04-27T05:47:07.156Z,95252.00
2023-04-27T05:48:00.786Z,95250.00
2023-04-27T05:48:59.568Z,95252.00
2023-04-27T05:49:59.560Z,95252.00
2023-04-27T05:50:59.651Z,95252.00
2023-04-27T05:51:59.546Z,95258.00
2023-04-27T05:52:59.840Z,95256.00
2023-04-27T05:53:59.553Z,95258.00
2023-04-27T05:54:59.553Z,95256.00
2023-04-27T05:55:59.905Z,95252.00
2023-04-27T05:56:59.730Z,95256.00
2023-04-27T05:58:07.714Z,95256.00
2023-04-27T05:59:10.970Z,95258.00
2023-04-27T06:00:00.494Z,95260.00
2023-04-27T06:00:59.502Z,95258.00
2023-04-27T06:01:59.491Z,95258.00
2023-04-27T06:02:59.613Z,95258.00
2023-04-27T06:03:59.533Z,95256.00
2023-04-27T06:04:59.478Z,95254.00
2023-04-27T06:05:59.470Z,95254.00
2023-04-27T06:06:59.433Z,95252.00
2023-04-27T06:07:59.841Z,95252.00
2023-04-27T06:08:59.413Z,95250.00
2023-04-27T06:09:59.443Z,95254.00
2023-04-27T06:10:59.474Z,95256.00
2023-04-27T06:11:59.414Z,95254.00
2023-04-27T06:12:59.411Z,95256.00
2023-04-27T06:13:59.849Z,95260.00
2023-04-27T06:14:59.440Z,95260.00
2023-04-27T06:15:59.414Z,95260.00
2023-04-27T06:16:59.409Z,95260.00
2023-04-27T06:17:59.361Z,95260.00
2023-04-27T06:18:59.811Z,95260.00
2023-04-27T06:19:59.381Z,95266.00
2023-04-27T06:20:59.321Z,95266.00
2023-04-27T06:21:59.327Z,95268.00
2023-04-27T06:22:59.336Z,95268.00
2023-04-27T06:23:59.346Z,95270.00
2023-04-27T06:24:59.322Z,95270.00
2023-04-27T06:25:59.278Z,95270.00
2023-04-27T06:26:59.437Z,95272.00
2023-04-27T06:27:59.348Z,95274.00
2023-04-27T06:28:59.980Z,95272.00
2023-04-27T06:29:59.354Z,95270.00
2023-04-27T06:30:59.367Z,95272.00
2023-04-27T06:31:59.494Z,95270.00
2023-04-27T06:32:59.423Z,95268.00
2023-04-27T06:33:59.895Z,95266.00
2023-04-27T06:34:59.484Z,95266.00
2023-04-27T06:35:59.463Z,95268.00
2023-04-27T06:36:59.479Z,95266.00
2023-04-27T06:37:59.626Z,95266.00
2023-04-27T06:38:59.848Z,95268.00
2023-04-27T06:39:59.553Z,95268.00
2023-04-27T06:40:59.608Z,95270.00
2023-04-27T06:42:00.205Z,95266.00
2023-04-27T06:42:59.848Z,95266.00
2023-04-27T06:43:59.867Z,95272.00
2023-04-27T06:44:59.837Z,95274.00
2023-04-27T06:46:00.942Z,95272.00
2023-04-27T06:46:59.919Z,95270.00
2023-04-27T06:47:59.966Z,95272.00
2023-04-27T06:49:00.387Z,95270.00
2023-04-27T06:50:00.055Z,95274.00
2023-04-27T06:51:00.119Z,95274.00
2023-04-27T06:52:00.219Z,95276.00
2023-04-27T06:53:00.229Z,95280.00
2023-04-27T06:54:00.761Z,95278.00
2023-04-27T06:55:00.342Z,95286.00
2023-04-27T06:56:00.410Z,95284.00
2023-04-27T06:57:00.412Z,95282.00
2023-04-27T06:58:00.574Z,95278.00
2023-04-27T06:59:00.661Z,95284.00
2023-04-27T07:00:00.650Z,95284.00
2023-04-27T07:01:00.697Z,95286.00
2023-04-27T07:02:01.091Z,95282.00
2023-04-27T07:03:01.280Z,95288.00
2023-04-27T07:04:01.039Z,95280.00
2023-04-27T07:05:01.714Z,95280.00
2023-04-27T07:06:01.702Z,95278.00
2023-04-27T07:07:01.145Z,95278.00
2023-04-27T07:08:04.559Z,95282.00
2023-04-27T07:10:20.406Z,95284.00
2023-04-27T07:11:19.965Z,95282.00
2023-04-27T07:12:19.980Z,95276.00
2023-04-27T07:13:20.181Z,95278.00
2023-04-27T07:14:19.987Z,95278.00
2023-04-27T07:15:20.343Z,95278.00
2023-04-27T07:16:20.004Z,95278.00
2023-04-27T07:17:20.045Z,95278.00
2023-04-27T07:18:19.908Z,95276.00
2023-04-27T07:19:19.915Z,95276.00
2023-04-27T07:20:19.922Z,95276.00
2023-04-27T07:21:19.868Z,95276.00
2023-04-27T07:22:19.917Z,95276.00
2023-04-27T07:23:19.896Z,95276.00
2023-04-27T07:24:19.908Z,95274.00
2023-04-27T07:25:19.857Z,95274.00
2023-04-27T07:26:19.914Z,95274.00
2023-04-27T07:27:19.877Z,95274.00
2023-04-27T07:28:19.896Z,95274.00
2023-04-27T07:29:27.140Z,95272.00
2023-04-27T07:30:21.141Z,95274.00
2023-04-27T07:31:19.857Z,95272.00
2023-04-27T07:32:19.839Z,95272.00
2023-04-27T07:33:19.814Z,95276.00
2023-04-27T07:34:20.173Z,95274.00
2023-04-27T07:35:19.815Z,95276.00
2023-04-27T07:36:19.902Z,95276.00
2023-04-27T07:37:20.079Z,95280.00
2023-04-27T07:38:19.940Z,95280.00
2023-04-27T07:39:20.207Z,95286.00
2023-04-27T07:40:20.065Z,95284.00
2023-04-27T07:41:20.091Z,95282.00
2023-04-27T07:42:21.056Z,95288.00
2023-04-27T07:43:20.232Z,95286.00
2023-04-27T07:44:20.664Z,95284.00
2023-04-27T07:45:20.173Z,95284.00
2023-04-27T07:46:20.216Z,95288.00
2023-04-27T07:47:20.277Z,95288.00
2023-04-27T07:48:20.382Z,95289.00
2023-04-27T07:49:20.688Z,95291.00
2023-04-27T07:50:20.397Z,95291.00
2023-04-27T07:51:20.460Z,95295.00
2023-04-27T07:52:20.509Z,95295.00
2023-04-27T07:53:20.506Z,95293.00
2023-04-27T07:54:20.731Z,95293.00
2023-04-27T07:55:20.638Z,95293.00
2023-04-27T07:56:20.700Z,95295.00
2023-04-27T07:57:20.746Z,95295.00
2023-04-27T07:58:20.780Z,95295.00
2023-04-27T07:59:20.850Z,95301.00
2023-04-27T08:00:20.917Z,95301.00
2023-04-27T08:01:21.483Z,95303.00
2023-04-27T08:02:21.146Z,95303.00
2023-04-27T08:03:21.132Z,95305.00
2023-04-27T08:04:21.553Z,95305.00
2023-04-27T08:05:21.496Z,95305.00
2023-04-27T08:06:21.878Z,95309.00
2023-04-27T08:07:21.707Z,95309.00
2023-04-27T08:08:21.756Z,95309.00
2023-04-27T08:09:21.333Z,95307.00
2023-04-27T08:10:21.444Z,95307.00
2023-04-27T08:11:21.422Z,95307.00
2023-04-27T08:12:21.553Z,95311.00
2023-04-27T08:13:22.441Z,95307.00
2023-04-27T08:14:21.724Z,95311.00
2023-04-27T08:15:21.719Z,95309.00
2023-04-27T08:16:29.376Z,95309.00
2023-04-27T08:17:21.725Z,95309.00
2023-04-27T08:18:21.814Z,95305.00
2023-04-27T08:19:21.750Z,95307.00
2023-04-27T08:20:21.766Z,95307.00
2023-04-27T08:21:21.712Z,95307.00
2023-04-27T08:22:21.710Z,95309.00
2023-04-27T08:23:21.689Z,95303.00
2023-04-27T08:24:21.690Z,95309.00
2023-04-27T08:25:21.696Z,95305.00
2023-04-27T08:26:22.131Z,95309.00
2023-04-27T08:27:22.122Z,95309.00
2023-04-27T08:28:21.718Z,95309.00
2023-04-27T08:29:27.789Z,95311.00
2023-04-27T08:30:22.695Z,95311.00
2023-04-27T08:31:21.664Z,95307.00
2023-04-27T08:32:21.630Z,95307.00
2023-04-27T08:33:21.645Z,95307.00
2023-04-27T08:34:21.658Z,95305.00
2023-04-27T08:35:21.694Z,95305.00
2023-04-27T08:36:21.647Z,95303.00
2023-04-27T08:37:21.673Z,95303.00
2023-04-27T08:38:23.149Z,95301.00
2023-04-27T08:39:21.601Z,95303.00
2023-04-27T08:40:21.742Z,95305.00
2023-04-27T08:41:22.403Z,95303.00
2023-04-27T08:42:21.708Z,95305.00
2023-04-27T08:43:21.574Z,95305.00
2023-04-27T08:44:21.564Z,95299.00
2023-04-27T08:45:21.577Z,95301.00
2023-04-27T08:46:21.614Z,95299.00
2023-04-27T08:47:28.301Z,95299.00
2023-04-27T08:48:22.837Z,95299.00
2023-04-27T08:49:21.868Z,95297.00
2023-04-27T08:50:21.904Z,95295.00
2023-04-27T08:51:21.569Z,95297.00
2023-04-27T08:52:22.517Z,95299.00
2023-04-27T08:53:21.797Z,95293.00
2023-04-27T08:54:21.817Z,95291.00
2023-04-27T08:55:21.803Z,95293.00
2023-04-27T08:56:21.476Z,95293.00
2023-04-27T08:57:21.438Z,95297.00
2023-04-27T08:58:21.456Z,95295.00
2023-04-27T08:59:21.396Z,95297.00
2023-04-27T09:00:21.484Z,95297.00
2023-04-27T09:01:21.422Z,95297.00
2023-04-27T09:02:21.478Z,95295.00
2023-04-27T09:03:21.615Z,95295.00
2023-04-27T09:04:21.626Z,95291.00
2023-04-27T09:05:21.651Z,95293.00
2023-04-27T09:06:21.746Z,95295.00
2023-04-27T09:07:32.318Z,95293.00
2023-04-27T09:08:21.681Z,95295.00
2023-04-27T09:09:21.637Z,95293.00
2023-04-27T09:10:21.775Z,95295.00
2023-04-27T09:11:22.615Z,95297.00
2023-04-27T09:12:21.663Z,95295.00
2023-04-27T09:13:21.646Z,95295.00
2023-04-27T09:14:21.615Z,95295.00
2023-04-27T09:15:21.734Z,95293.00
2023-04-27T09:16:21.710Z,95288.00
2023-04-27T09:17:21.674Z,95288.00
2023-04-27T09:18:21.594Z,95286.00
2023-04-27T09:19:21.599Z,95282.00
2023-04-27T09:20:21.636Z,95286.00
2023-04-27T09:21:21.610Z,95284.00
2023-04-27T09:22:21.570Z,95288.00
2023-04-27T09:23:21.634Z,95288.00
2023-04-27T09:24:21.581Z,95280.00
2023-04-27T09:25:21.697Z,95278.00
2023-04-27T09:26:21.748Z,95274.00
2023-04-27T09:27:21.766Z,95270.00
2023-04-27T09:28:21.823Z,95268.00
2023-04-27T09:29:21.811Z,95270.00
2023-04-27T09:30:22.236Z,95272.00
2023-04-27T09:31:21.948Z,95274.00
2023-04-27T09:32:22.013Z,95274.00
2023-04-27T09:33:22.105Z,95274.00
2023-04-27T09:34:22.119Z,95272.00
2023-04-27T09:35:22.161Z,95268.00
2023-04-27T09:36:22.282Z,95272.00
2023-04-27T09:37:22.338Z,95268.00
2023-04-27T09:38:22.284Z,95264.00
2023-04-27T09:39:22.399Z,95264.00
2023-04-27T09:40:22.786Z,95264.00
2023-04-27T09:41:22.415Z,95262.00
2023-04-27T09:42:23.553Z,95262.00
2023-04-27T09:43:22.529Z,95264.00
2023-04-27T09:44:22.631Z,95258.00
2023-04-27T09:45:22.888Z,95256.00
2023-04-27T09:46:22.718Z,95250.00
2023-04-27T09:47:22.675Z,95252.00
2023-04-27T09:48:22.572Z,95256.00
2023-04-27T09:49:22.673Z,95252.00
2023-04-27T09:50:22.742Z,95256.00
2023-04-27T09:51:22.781Z,95252.00
2023-04-27T09:52:22.790Z,95252.00
2023-04-27T09:53:22.979Z,95248.00
2023-04-27T09:54:22.935Z,95244.00
2023-04-27T09:55:22.894Z,95246.00
2023-04-27T09:56:23.688Z,95244.00
2023-04-27T09:57:23.262Z,95241.00
2023-04-27T09:58:22.994Z,95239.00
2023-04-27T09:59:23.047Z,95235.00
2023-04-27T10:00:23.389Z,95235.00
2023-04-27T10:01:23.449Z,95235.00
2023-04-27T10:02:25.666Z,95233.00
2023-04-27T10:03:23.138Z,95235.00
2023-04-27T10:04:24.361Z,95233.00
2023-04-27T10:05:23.135Z,95229.00
2023-04-27T10:06:23.261Z,95231.00
2023-04-27T10:07:23.152Z,95227.00
2023-04-27T10:08:23.629Z,95229.00
2023-04-27T10:09:23.072Z,95223.00
2023-04-27T10:10:23.063Z,95225.00
2023-04-27T10:11:23.079Z,95223.00
2023-04-27T10:12:23.099Z,95219.00
2023-04-27T10:13:23.043Z,95221.00
2023-04-27T10:14:23.421Z,95221.00
2023-04-27T10:15:23.030Z,95221.00
2023-04-27T10:16:23.152Z,95217.00
2023-04-27T10:17:23.094Z,95215.00
2023-04-27T10:18:23.076Z,95213.00
2023-04-27T10:19:23.362Z,95207.00
2023-04-27T10:20:23.268Z,95207.00
2023-04-27T10:21:23.330Z,95201.00
2023-04-27T10:22:23.895Z,95199.00
2023-04-27T10:23:23.033Z,95203.00
2023-04-27T10:24:22.920Z,95199.00
2023-04-27T10:25:22.928Z,95199.00
2023-04-27T10:26:23.346Z,95199.00
2023-04-27T10:27:22.944Z,95197.00
2023-04-27T10:28:23.069Z,95195.00
2023-04-27T10:29:22.956Z,95197.00
2023-04-27T10:30:23.382Z,95195.00
2023-04-27T10:31:23.001Z,95199.00
2023-04-27T10:32:22.938Z,95195.00
2023-04-27T10:33:23.329Z,95199.00
2023-04-27T10:34:23.378Z,95201.00
2023-04-27T10:35:23.050Z,95199.00
2023-04-27T10:36:23.370Z,95195.00
2023-04-27T10:37:23.427Z,95189.00
2023-04-27T10:38:23.197Z,95184.00
2023-04-27T10:39:32.671Z,95186.00
2023-04-27T10:40:24.365Z,95184.00
2023-04-27T10:41:23.267Z,95186.00
2023-04-27T10:42:23.053Z,95182.00
2023-04-27T10:43:23.061Z,95186.00
2023-04-27T10:44:23.067Z,95184.00
2023-04-27T10:45:23.091Z,95180.00
2023-04-27T10:46:23.326Z,95178.00
2023-04-27T10:47:23.055Z,95172.00
2023-04-27T10:48:23.045Z,95174.00
2023-04-27T10:49:23.024Z,95170.00
2023-04-27T10:50:23.433Z,95170.00
2023-04-27T10:51:23.012Z,95170.00
2023-04-27T10:52:22.976Z,95172.00
2023-04-27T10:53:23.000Z,95172.00
2023-04-27T10:54:23.961Z,95174.00
2023-04-27T10:55:23.082Z,95170.00
2023-04-27T10:56:23.114Z,95166.00
2023-04-27T10:57:23.505Z,95160.00
2023-04-27T10:58:23.521Z,95158.00
2023-04-27T10:59:23.150Z,95160.00
2023-04-27T11:00:23.835Z,95160.00
2023-04-27T11:01:24.198Z,95154.00
2023-04-27T11:02:23.348Z,95156.00
2023-04-27T11:03:23.443Z,95150.00
2023-04-27T11:04:23.415Z,95152.00
2023-04-27T11:05:23.442Z,95152.00
2023-04-27T11:06:23.437Z,95152.00
2023-04-27T11:07:23.458Z,95152.00
2023-04-27T11:08:23.568Z,95150.00
2023-04-27T11:09:23.556Z,95150.00
2023-04-27T11:10:23.586Z,95140.00
2023-04-27T11:11:23.975Z,95148.00
2023-04-27T11:12:23.759Z,95152.00
2023-04-27T11:13:23.768Z,95148.00
2023-04-27T11:14:23.796Z,95154.00
2023-04-27T11:15:24.122Z,95148.00
2023-04-27T11:16:23.977Z,95150.00
2023-04-27T11:17:23.871Z,95140.00
2023-04-27T11:18:23.956Z,95148.00
2023-04-27T11:19:24.758Z,95150.00
2023-04-27T11:20:23.992Z,95140.00
2023-04-27T11:21:24.292Z,95140.00
2023-04-27T11:22:24.055Z,95138.00
2023-04-27T11:23:24.070Z,95140.00
2023-04-27T11:24:24.094Z,95138.00
2023-04-27T11:25:24.171Z,95136.00
2023-04-27T11:26:24.221Z,95140.00
2023-04-27T11:27:24.255Z,95136.00
2023-04-27T11:28:24.679Z,95134.00
2023-04-27T11:29:24.309Z,95138.00
2023-04-27T11:30:24.372Z,95138.00
2023-04-27T11:31:24.842Z,95148.00
2023-04-27T11:32:24.428Z,95148.00
2023-04-27T11:33:24.664Z,95150.00
2023-04-27T11:34:25.170Z,95148.00
2023-04-27T11:35:25.209Z,95148.00
2023-04-27T11:36:24.817Z,95140.00
2023-04-27T11:37:24.355Z,95140.00
2023-04-27T11:38:24.411Z,95150.00
2023-04-27T11:39:24.488Z,95140.00
2023-04-27T11:40:24.718Z,95136.00
2023-04-27T11:41:24.857Z,95136.00
2023-04-27T11:42:24.784Z,95134.00
2023-04-27T11:43:24.558Z,95131.00
2023-04-27T11:44:24.474Z,95129.00
2023-04-27T11:45:24.433Z,95127.00
2023-04-27T11:46:24.858Z,95125.00
2023-04-27T11:47:24.436Z,95125.00
2023-04-27T11:48:24.497Z,95127.00